createdAt,value
2023-05-04T00:00:02.643Z,99.90
2023-05-04T00:05:06.259Z,99.90
2023-05-04T00:10:08.841Z,99.90
2023-05-04T00:15:10.939Z,99.90
2023-05-04T00:20:14.769Z,99.90
2023-05-04T00:25:16.639Z,99.90
2023-05-04T00:30:18.546Z,99.90
2023-05-04T00:35:20.366Z,99.90
2023-05-04T00:40:22.273Z,99.90
2023-05-04T00:45:24.091Z,99.90
2023-05-04T00:50:27.165Z,99.90
2023-05-04T00:55:29.296Z,99.90
2023-05-04T01:00:31.193Z,99.90
2023-05-04T01:05:36.813Z,99.90
2023-05-04T01:10:49.637Z,99.90
2023-05-04T01:15:52.075Z,99.90
2023-05-04T01:20:54.059Z,99.90
2023-05-04T01:26:01.605Z,99.90
2023-05-04T01:31:05.085Z,99.90
2023-05-04T01:36:07.415Z,99.90
2023-05-04T01:41:09.216Z,99.90
2023-05-04T01:46:11.276Z,99.90
2023-05-04T01:51:13.171Z,99.90
2023-05-04T01:56:15.299Z,99.90
2023-05-04T02:01:17.120Z,99.90
2023-05-04T02:06:19.047Z,99.90
2023-05-04T02:11:21.075Z,99.90
2023-05-04T02:16:22.962Z,99.90
2023-05-04T02:21:25.635Z,99.90
2023-05-04T02:26:27.466Z,99.90
2023-05-04T02:31:29.534Z,99.90
2023-05-04T02:36:31.550Z,99.90
2023-05-04T02:41:33.350Z,99.90
2023-05-04T02:46:35.168Z,99.90
2023-05-04T02:51:37.025Z,99.90
2023-05-04T02:56:38.844Z,99.90
2023-05-04T03:01:40.929Z,99.90
2023-05-04T03:06:42.801Z,99.90
2023-05-04T03:11:44.712Z,99.90
2023-05-04T03:16:47.037Z,99.90
2023-05-04T03:21:50.442Z,99.90
2023-05-04T03:26:52.277Z,99.90
2023-05-04T03:31:54.096Z,99.90
2023-05-04T03:36:55.914Z,99.90
2023-05-04T03:41:57.708Z,99.90
2023-05-04T03:46:59.520Z,99.90
2023-05-04T03:52:01.382Z,99.90
2023-05-04T03:57:04.413Z,99.90
2023-05-04T04:02:06.444Z,99.90
2023-05-04T04:07:08.643Z,99.90
2023-05-04T04:12:10.483Z,99.90
2023-05-04T04:17:12.276Z,99.90
2023-05-04T04:22:14.475Z,99.90
2023-05-04T04:27:16.257Z,99.90
2023-05-04T04:32:18.084Z,99.90
2023-05-04T04:37:19.904Z,99.90
2023-05-04T04:42:21.804Z,99.90
2023-05-04T04:47:23.650Z,99.90
2023-05-04T04:52:25.981Z,99.90
2023-05-04T04:57:30.551Z,99.70
2023-05-04T05:02:48.535Z,98.70
2023-05-04T05:07:50.383Z,97.80
2023-05-04T05:13:06.742Z,95.80
2023-05-04T05:18:08.777Z,95.00
2023-05-04T05:23:11.040Z,93.70
2023-05-04T05:28:15.995Z,93.20
2023-05-04T05:33:17.988Z,91.80
2023-05-04T05:38:19.970Z,90.80
2023-05-04T05:43:21.799Z,90.80
2023-05-04T05:48:23.891Z,90.10
2023-05-04T05:53:25.844Z,88.20
2023-05-04T05:58:29.853Z,88.80
2023-05-04T06:03:31.717Z,86.70
2023-05-04T06:08:33.678Z,86.70
2023-05-04T06:13:36.529Z,85.80
2023-05-04T06:18:38.390Z,84.30
2023-05-04T06:23:40.680Z,83.00
2023-05-04T06:28:42.487Z,81.70
2023-05-04T06:33:44.281Z,81.00
2023-05-04T06:38:46.424Z,78.30
2023-05-04T06:43:48.225Z,77.60
2023-05-04T06:48:50.028Z,77.60
2023-05-04T06:53:51.867Z,75.50
2023-05-04T06:58:53.733Z,76.60
2023-05-04T07:03:58.358Z,75.40
2023-05-04T07:09:00.500Z,74.70
2023-05-04T07:14:02.377Z,73.00
2023-05-04T07:19:07.336Z,72.60
2023-05-04T07:24:09.508Z,70.90
2023-05-04T07:29:11.496Z,70.40
2023-05-04T07:34:13.326Z,70.40
2023-05-04T07:39:16.740Z,71.00
2023-05-04T07:44:18.622Z,68.70
2023-05-04T07:49:20.565Z,67.70
2023-05-04T07:54:23.083Z,66.10
2023-05-04T07:59:25.024Z,66.90
2023-05-04T08:04:26.994Z,66.70
2023-05-04T08:09:28.825Z,66.00
2023-05-04T08:14:30.695Z,64.80
2023-05-04T08:19:32.906Z,63.20
2023-05-04T08:24:35.227Z,63.30
2023-05-04T08:29:43.091Z,63.10
2023-05-04T08:35:11.026Z,63.50
2023-05-04T08:40:13.708Z,62.60
2023-05-04T08:45:16.559Z,61.30
2023-05-04T08:50:18.491Z,61.30
2023-05-04T08:55:21.007Z,60.80
2023-05-04T09:00:30.061Z,61.30
2023-05-04T09:05:32.600Z,61.10
2023-05-04T09:10:34.583Z,60.60
2023-05-04T09:15:36.432Z,60.80
2023-05-04T09:20:46.857Z,57.80
2023-05-04T09:25:55.271Z,58.30
2023-05-04T09:31:00.978Z,57.20
2023-05-04T09:36:17.793Z,57.10
2023-05-04T09:41:31.489Z,58.90
2023-05-04T09:46:34.561Z,57.90
2023-05-04T09:51:38.895Z,55.40
2023-05-04T09:56:49.594Z,53.70
2023-05-04T10:01:52.359Z,54.00
2023-05-04T10:06:55.318Z,56.00
2023-05-04T10:12:00.562Z,54.70
2023-05-04T10:17:24.143Z,54.40
2023-05-04T10:22:41.186Z,54.40
2023-05-04T10:27:55.075Z,54.90
2023-05-04T10:32:58.093Z,53.20
2023-05-04T10:38:00.759Z,54.70
2023-05-04T10:43:02.924Z,54.20
2023-05-04T10:48:05.520Z,51.50
2023-05-04T10:53:07.803Z,51.70
2023-05-04T10:58:11.336Z,52.00
2023-05-04T11:03:14.247Z,51.20
2023-05-04T11:08:24.446Z,49.90
2023-05-04T11:13:29.278Z,50.50
2023-05-04T11:18:34.151Z,50.10
2023-05-04T11:23:36.630Z,50.60
2023-05-04T11:28:39.569Z,51.40
2023-05-04T11:33:48.084Z,50.10
2023-05-04T11:38:50.950Z,51.00
2023-05-04T11:43:53.184Z,48.30
2023-05-04T11:48:55.026Z,50.10
2023-05-04T11:53:57.131Z,48.70
2023-05-04T11:59:08.101Z,49.30
2023-05-04T12:04:11.986Z,47.10
2023-05-04T12:09:13.838Z,48.30
2023-05-04T12:14:17.187Z,45.80
2023-05-04T12:19:19.105Z,45.90
2023-05-04T12:24:24.201Z,45.40
2023-05-04T12:29:26.582Z,46.30
2023-05-04T12:34:28.448Z,46.60
2023-05-04T12:39:32.552Z,46.40
2023-05-04T12:44:39.655Z,47.40
2023-05-04T12:49:41.497Z,47.50
2023-05-04T12:54:43.357Z,48.20
2023-05-04T12:59:45.957Z,47.30
2023-05-04T13:04:48.032Z,46.20
2023-05-04T13:09:50.217Z,46.00
2023-05-04T13:14:55.825Z,46.80
2023-05-04T13:20:42.306Z,45.40
2023-05-04T13:26:03.487Z,45.80
2023-05-04T13:31:05.800Z,47.10
2023-05-04T13:36:07.989Z,45.80
2023-05-04T13:41:09.825Z,48.50
2023-05-04T13:51:41.254Z,49.10
2023-05-04T13:56:58.830Z,47.40
2023-05-04T14:02:04.380Z,46.30
2023-05-04T14:07:16.486Z,48.00
2023-05-04T14:12:26.402Z,47.90
2023-05-04T14:17:39.482Z,47.70
2023-05-04T14:22:49.115Z,48.10
2023-05-04T14:27:51.430Z,48.20
2023-05-04T14:32:58.326Z,48.80
2023-05-04T14:38:02.340Z,47.50
2023-05-04T14:43:08.612Z,47.70
2023-05-04T14:48:19.383Z,47.60
2023-05-04T14:53:30.472Z,47.80
2023-05-04T14:58:32.289Z,48.10
2023-05-04T15:03:59.459Z,49.20
2023-05-04T15:09:06.108Z,47.70
2023-05-04T15:14:22.089Z,47.00
2023-05-04T15:19:30.315Z,47.00
2023-05-04T15:24:32.320Z,48.00
2023-05-04T15:29:34.178Z,47.90
2023-05-04T15:34:36.195Z,47.50
2023-05-04T15:39:38.055Z,47.10
2023-05-04T15:44:42.933Z,47.60
2023-05-04T15:49:45.111Z,47.60
2023-05-04T15:54:47.379Z,47.80
2023-05-04T15:59:49.647Z,48.30
2023-05-04T16:04:55.347Z,49.10
2023-05-04T16:09:59.024Z,49.00
2023-05-04T16:15:00.854Z,49.40
2023-05-04T16:20:03.996Z,49.60
2023-05-04T16:25:07.867Z,49.80
2023-05-04T16:30:11.258Z,51.00
2023-05-04T16:35:13.302Z,51.40
2023-05-04T16:40:15.854Z,51.80
2023-05-04T16:45:17.760Z,51.00
2023-05-04T16:50:19.639Z,51.30
2023-05-04T16:55:21.539Z,51.00
2023-05-04T17:00:24.444Z,51.20
2023-05-04T17:05:26.634Z,51.80
2023-05-04T17:10:28.481Z,52.50
2023-05-04T17:15:30.337Z,52.70
2023-05-04T17:20:32.329Z,54.00
2023-05-04T17:25:35.430Z,54.30
2023-05-04T17:30:38.109Z,54.30
2023-05-04T17:35:40.593Z,55.90
2023-05-04T17:40:42.435Z,56.80
2023-05-04T17:45:44.274Z,59.40
2023-05-04T17:50:48.194Z,59.90
2023-05-04T17:55:53.270Z,60.60
2023-05-04T18:00:55.198Z,62.80
2023-05-04T18:05:59.184Z,65.10
2023-05-04T18:11:01.197Z,67.00
2023-05-04T18:16:03.129Z,70.40
2023-05-04T18:21:13.415Z,74.10
2023-05-04T18:26:22.793Z,72.10
2023-05-04T18:31:32.421Z,73.00
2023-05-04T18:36:40.528Z,74.20
2023-05-04T18:41:42.456Z,72.60
2023-05-04T18:46:47.226Z,73.50
2023-05-04T18:51:49.082Z,73.60
2023-05-04T18:56:50.946Z,73.60
2023-05-04T19:01:53.037Z,76.30
2023-05-04T19:06:55.003Z,75.90
2023-05-04T19:11:57.485Z,76.90
2023-05-04T19:17:25.894Z,76.00
2023-05-04T19:22:27.925Z,76.20
2023-05-04T19:27:31.212Z,76.20
2023-05-04T19:32:33.118Z,76.10
2023-05-04T19:37:38.494Z,76.60
2023-05-04T19:42:46.367Z,77.60
2023-05-04T19:47:50.200Z,78.20
2023-05-04T19:52:52.241Z,77.00
2023-05-04T19:57:54.264Z,78.00
2023-05-04T20:02:56.227Z,80.20
2023-05-04T20:07:58.231Z,80.60
2023-05-04T20:13:00.366Z,81.30
2023-05-04T20:18:02.546Z,81.50
2023-05-04T20:23:04.481Z,81.60
2023-05-04T20:28:06.825Z,80.60
2023-05-04T20:33:20.006Z,80.60
2023-05-04T20:38:21.855Z,80.60
2023-05-04T20:43:23.721Z,81.00
2023-05-04T20:48:25.646Z,81.30
2023-05-04T20:53:33.194Z,81.50
2023-05-04T20:58:36.182Z,81.30
2023-05-04T21:03:38.237Z,81.60
2023-05-04T21:08:43.960Z,82.10
2023-05-04T21:13:45.887Z,81.70
2023-05-04T21:18:47.862Z,82.20
2023-05-04T21:23:49.674Z,82.80
2023-05-04T21:28:51.749Z,83.70
2023-05-04T21:33:56.740Z,85.40
2023-05-04T21:38:59.140Z,85.20
2023-05-04T21:44:00.999Z,84.70
2023-05-04T21:49:02.889Z,84.30
2023-05-04T21:54:04.763Z,85.20
2023-05-04T21:59:06.630Z,84.90
2023-05-04T22:04:08.674Z,84.40
2023-05-04T22:09:10.603Z,84.70
2023-05-04T22:14:12.591Z,87.10
2023-05-04T22:19:14.437Z,86.60
2023-05-04T22:24:16.319Z,87.90
2023-05-04T22:29:18.177Z,87.70
2023-05-04T22:34:19.989Z,88.80
2023-05-04T22:39:22.511Z,89.40
2023-05-04T22:44:24.325Z,88.20
2023-05-04T22:49:26.185Z,90.40
2023-05-04T22:54:28.055Z,89.10
2023-05-04T22:59:31.642Z,89.00
2023-05-04T23:04:33.790Z,90.60
2023-05-04T23:09:45.796Z,90.90
2023-05-04T23:14:52.363Z,91.00
2023-05-04T23:19:54.288Z,91.30
2023-05-04T23:24:56.127Z,91.00
2023-05-04T23:29:58.034Z,91.20
2023-05-04T23:34:59.981Z,91.60
2023-05-04T23:40:02.089Z,91.80
2023-05-04T23:45:04.943Z,91.30
2023-05-04T23:50:07.871Z,92.10
2023-05-04T23:55:10.111Z,92.30
